createdAt,value
2016-10-16T00:00:43.498Z,99.99
2016-10-16T00:01:43.334Z,99.99
2016-10-16T00:02:42.824Z,99.99
2016-10-16T00:03:42.476Z,99.99
2016-10-16T00:04:44.024Z,99.99
2016-10-16T00:05:43.250Z,99.99
2016-10-16T00:06:42.924Z,99.99
2016-10-16T00:07:44.814Z,99.99
2016-10-16T00:08:43.535Z,99.99
2016-10-16T00:09:43.169Z,99.99
2016-10-16T00:10:43.127Z,99.99
2016-10-16T00:11:43.813Z,99.99
2016-10-16T00:12:43.663Z,99.99
2016-10-16T00:13:42.599Z,99.99
2016-10-16T00:14:43.176Z,99.99
2016-10-16T00:15:43.080Z,99.99
2016-10-16T00:16:43.097Z,99.99
2016-10-16T00:17:44.006Z,99.99
2016-10-16T00:18:43.464Z,99.99
2016-10-16T00:19:42.777Z,99.99
2016-10-16T00:20:42.844Z,99.99
2016-10-16T00:21:43.666Z,99.99
2016-10-16T00:22:43.156Z,99.99
2016-10-16T00:23:42.706Z,99.99
2016-10-16T00:24:43.571Z,99.99
2016-10-16T00:25:43.444Z,99.99
2016-10-16T00:26:42.673Z,99.99
2016-10-16T00:27:43.000Z,99.99
2016-10-16T00:28:43.095Z,99.99
2016-10-16T00:29:43.482Z,99.99
2016-10-16T00:30:43.965Z,99.99
2016-10-16T00:31:44.689Z,99.99
2016-10-16T00:32:43.287Z,99.99
2016-10-16T00:33:43.756Z,99.99
2016-10-16T00:34:43.958Z,99.99
2016-10-16T00:35:43.509Z,99.99
2016-10-16T00:36:43.579Z,99.99
2016-10-16T00:37:43.432Z,99.99
2016-10-16T00:38:42.933Z,99.99
2016-10-16T00:39:44.227Z,99.99
2016-10-16T00:40:44.042Z,99.99
2016-10-16T00:41:43.354Z,99.99
2016-10-16T00:42:43.679Z,99.99
2016-10-16T00:43:43.958Z,99.99
2016-10-16T00:44:44.048Z,99.99
2016-10-16T00:45:43.621Z,99.99
2016-10-16T00:46:43.897Z,99.99
2016-10-16T00:47:44.230Z,99.99
2016-10-16T00:48:44.069Z,99.99
2016-10-16T00:49:43.443Z,99.99
2016-10-16T00:50:43.668Z,99.99
2016-10-16T00:51:43.787Z,99.99
2016-10-16T00:52:43.383Z,99.99
2016-10-16T00:53:43.782Z,99.99
2016-10-16T00:54:44.321Z,99.99
2016-10-16T00:55:43.548Z,99.99
2016-10-16T00:56:43.584Z,99.99
2016-10-16T00:57:43.847Z,99.99
2016-10-16T00:58:43.316Z,99.99
2016-10-16T00:59:44.143Z,99.99
2016-10-16T01:00:43.897Z,99.99
2016-10-16T01:01:44.092Z,99.99
2016-10-16T01:02:43.625Z,99.99
2016-10-16T01:03:43.593Z,99.99
2016-10-16T01:04:44.034Z,99.99
2016-10-16T01:05:44.190Z,99.99
2016-10-16T01:06:44.208Z,99.99
2016-10-16T01:07:43.980Z,99.99
2016-10-16T01:08:43.859Z,99.99
2016-10-16T01:09:43.961Z,99.99
2016-10-16T01:10:44.227Z,99.99
2016-10-16T01:11:44.181Z,99.99
2016-10-16T01:12:43.982Z,99.99
2016-10-16T01:13:44.317Z,99.99
2016-10-16T01:14:45.121Z,99.99
2016-10-16T01:15:43.702Z,99.99
2016-10-16T01:16:44.150Z,99.99
2016-10-16T01:17:43.869Z,99.99
2016-10-16T01:18:44.078Z,99.99
2016-10-16T01:19:43.995Z,99.99
2016-10-16T01:20:44.003Z,99.99
2016-10-16T01:21:45.057Z,99.99
2016-10-16T01:22:44.781Z,99.99
2016-10-16T01:23:44.030Z,99.99
2016-10-16T01:24:44.050Z,99.99
2016-10-16T01:25:45.035Z,99.99
2016-10-16T01:26:44.400Z,99.99
2016-10-16T01:27:44.931Z,99.99
2016-10-16T01:28:45.321Z,99.99
2016-10-16T01:29:44.797Z,99.99
2016-10-16T01:30:44.348Z,99.99
2016-10-16T01:31:43.953Z,99.99
2016-10-16T01:32:44.199Z,99.99
2016-10-16T01:33:43.923Z,99.99
2016-10-16T01:34:44.249Z,99.99
2016-10-16T01:35:44.322Z,99.99
2016-10-16T01:36:44.746Z,99.99
2016-10-16T01:37:44.482Z,99.99
2016-10-16T01:38:44.290Z,99.99
2016-10-16T01:39:44.732Z,99.99
2016-10-16T01:40:44.797Z,99.99
2016-10-16T01:41:45.311Z,99.99
2016-10-16T01:42:44.425Z,99.99
2016-10-16T01:43:44.391Z,99.99
2016-10-16T01:44:44.405Z,99.99
2016-10-16T01:45:44.400Z,99.99
2016-10-16T01:46:44.418Z,99.99
2016-10-16T01:47:45.192Z,99.99
2016-10-16T01:48:44.441Z,99.99
2016-10-16T01:49:45.590Z,99.99
2016-10-16T01:50:44.363Z,99.99
2016-10-16T01:51:45.153Z,99.99
2016-10-16T01:52:45.301Z,99.99
2016-10-16T01:53:44.483Z,99.99
2016-10-16T01:54:44.964Z,99.99
2016-10-16T01:55:45.024Z,99.99
2016-10-16T01:56:44.472Z,99.99
2016-10-16T01:57:45.356Z,99.99
2016-10-16T01:58:45.676Z,99.99
2016-10-16T01:59:44.977Z,99.99
2016-10-16T02:00:45.606Z,99.99
2016-10-16T02:01:45.245Z,99.99
2016-10-16T02:02:44.737Z,99.99
2016-10-16T02:03:44.895Z,99.99
2016-10-16T02:04:45.597Z,99.99
2016-10-16T02:05:45.278Z,99.99
2016-10-16T02:06:45.037Z,99.99
2016-10-16T02:07:45.168Z,99.99
2016-10-16T02:08:45.126Z,99.99
2016-10-16T02:09:45.086Z,99.99
2016-10-16T02:10:45.373Z,99.99
2016-10-16T02:11:45.148Z,99.99
2016-10-16T02:12:45.172Z,99.99
2016-10-16T02:13:45.013Z,99.99
2016-10-16T02:14:45.498Z,99.99
2016-10-16T02:15:45.061Z,99.99
2016-10-16T02:16:45.445Z,99.99
2016-10-16T02:17:45.208Z,99.99
2016-10-16T02:18:45.569Z,99.99
2016-10-16T02:19:46.299Z,99.99
2016-10-16T02:20:45.479Z,99.99
2016-10-16T02:21:44.989Z,99.99
2016-10-16T02:22:45.277Z,99.99
2016-10-16T02:23:45.871Z,99.99
2016-10-16T02:24:45.382Z,99.99
2016-10-16T02:25:45.420Z,99.99
2016-10-16T02:26:44.915Z,99.99
2016-10-16T02:27:45.277Z,99.99
2016-10-16T02:28:45.236Z,99.99
2016-10-16T02:29:45.387Z,99.99
2016-10-16T02:30:45.945Z,99.99
2016-10-16T02:31:45.486Z,99.99
2016-10-16T02:32:45.738Z,99.99
2016-10-16T02:33:45.480Z,99.99
2016-10-16T02:34:45.904Z,99.99
2016-10-16T02:35:45.256Z,99.99
2016-10-16T02:36:45.645Z,99.99
2016-10-16T02:37:45.319Z,99.99
2016-10-16T02:38:45.191Z,99.99
2016-10-16T02:39:45.951Z,99.99
2016-10-16T02:40:45.368Z,99.99
2016-10-16T02:41:45.811Z,99.99
2016-10-16T02:42:46.107Z,99.99
2016-10-16T02:43:46.119Z,99.99
2016-10-16T02:44:45.517Z,99.99
2016-10-16T02:45:46.173Z,99.99
2016-10-16T02:46:45.941Z,99.99
2016-10-16T02:47:46.289Z,99.99
2016-10-16T02:48:45.108Z,99.99
2016-10-16T02:49:46.267Z,99.99
2016-10-16T02:50:45.904Z,99.99
2016-10-16T02:51:46.176Z,99.99
2016-10-16T02:52:46.477Z,99.99
2016-10-16T02:53:45.658Z,99.99
2016-10-16T02:54:46.038Z,99.99
2016-10-16T02:55:45.626Z,99.99
2016-10-16T02:56:46.081Z,99.99
2016-10-16T02:57:46.230Z,99.99
2016-10-16T02:58:45.861Z,99.99
2016-10-16T02:59:46.320Z,99.99
2016-10-16T03:00:46.003Z,99.99
2016-10-16T03:01:46.187Z,99.99
2016-10-16T03:02:46.325Z,99.99
2016-10-16T03:03:46.143Z,99.99
2016-10-16T03:04:46.380Z,99.99
2016-10-16T03:05:45.769Z,99.99
2016-10-16T03:06:46.523Z,99.99
2016-10-16T03:07:46.384Z,99.99
2016-10-16T03:08:46.342Z,99.99
2016-10-16T03:09:46.122Z,99.99
2016-10-16T03:10:46.307Z,99.99
2016-10-16T03:11:46.546Z,99.99
2016-10-16T03:12:46.461Z,99.99
2016-10-16T03:13:46.119Z,99.99
2016-10-16T03:14:46.031Z,99.99
2016-10-16T03:15:46.853Z,99.99
2016-10-16T03:16:46.781Z,99.99
2016-10-16T03:17:47.484Z,99.99
2016-10-16T03:18:46.659Z,99.99
2016-10-16T03:19:46.730Z,99.99
2016-10-16T03:20:46.846Z,99.99
2016-10-16T03:21:47.758Z,99.99
2016-10-16T03:22:46.514Z,99.99
2016-10-16T03:23:46.432Z,99.99
2016-10-16T03:24:46.004Z,99.99
2016-10-16T03:25:46.360Z,99.99
2016-10-16T03:26:47.086Z,99.99
2016-10-16T03:27:46.142Z,99.99
2016-10-16T03:28:46.754Z,99.99
2016-10-16T03:29:46.081Z,99.99
2016-10-16T03:30:46.080Z,99.99
2016-10-16T03:31:46.461Z,99.99
2016-10-16T03:32:46.485Z,99.99
2016-10-16T03:33:46.676Z,99.99
2016-10-16T03:34:46.901Z,99.99
2016-10-16T03:35:46.430Z,99.99
2016-10-16T03:36:47.256Z,99.99
2016-10-16T03:37:46.858Z,99.99
2016-10-16T03:38:47.452Z,99.99
2016-10-16T03:39:46.779Z,99.99
2016-10-16T03:40:46.703Z,99.99
2016-10-16T03:41:46.533Z,99.99
2016-10-16T03:42:46.632Z,99.99
2016-10-16T03:43:46.693Z,99.99
2016-10-16T03:44:47.606Z,99.99
2016-10-16T03:45:47.564Z,99.99
2016-10-16T03:46:46.793Z,99.99
2016-10-16T03:47:46.640Z,99.99
2016-10-16T03:48:47.172Z,99.99
2016-10-16T03:49:46.649Z,99.99
2016-10-16T03:50:47.678Z,99.99
2016-10-16T03:51:47.637Z,99.99
2016-10-16T03:52:46.524Z,99.99
2016-10-16T03:53:46.908Z,99.99
2016-10-16T03:54:46.605Z,99.99
2016-10-16T03:55:47.096Z,99.99
2016-10-16T03:56:46.406Z,99.99
2016-10-16T03:57:47.156Z,99.99
2016-10-16T03:58:46.854Z,99.99
2016-10-16T03:59:46.995Z,99.99
2016-10-16T04:00:46.990Z,99.99
2016-10-16T04:01:48.073Z,99.99
2016-10-16T04:02:47.083Z,99.99
2016-10-16T04:03:46.534Z,99.99
2016-10-16T04:04:47.978Z,99.99
2016-10-16T04:05:47.937Z,99.99
2016-10-16T04:06:47.916Z,99.99
2016-10-16T04:07:46.958Z,99.99
2016-10-16T04:08:47.146Z,99.99
2016-10-16T04:09:47.066Z,99.99
2016-10-16T04:10:47.688Z,99.99
2016-10-16T04:11:47.944Z,99.99
2016-10-16T04:12:46.893Z,99.99
2016-10-16T04:13:47.170Z,99.99
2016-10-16T04:14:47.284Z,99.99
2016-10-16T04:15:47.816Z,99.99
2016-10-16T04:16:47.986Z,99.99
2016-10-16T04:17:46.787Z,99.99
2016-10-16T04:18:47.740Z,99.99
2016-10-16T04:19:47.114Z,99.99
2016-10-16T04:20:47.063Z,99.99
2016-10-16T04:21:47.144Z,99.99
2016-10-16T04:22:47.476Z,99.99
2016-10-16T04:23:48.028Z,99.99
2016-10-16T04:24:48.039Z,99.99
2016-10-16T04:25:47.721Z,99.99
2016-10-16T04:26:47.553Z,99.99
2016-10-16T04:27:47.754Z,99.99
2016-10-16T04:28:47.897Z,99.99
2016-10-16T04:29:47.579Z,99.99
2016-10-16T04:30:47.644Z,99.99
2016-10-16T04:31:47.322Z,99.99
2016-10-16T04:32:47.819Z,99.99
2016-10-16T04:33:48.609Z,99.99
2016-10-16T04:34:48.021Z,99.99
2016-10-16T04:35:47.917Z,99.99
2016-10-16T04:36:48.245Z,99.99
2016-10-16T04:37:47.749Z,99.99
2016-10-16T04:38:48.359Z,99.99
2016-10-16T04:39:48.142Z,99.99
2016-10-16T04:40:48.293Z,99.99
2016-10-16T04:41:47.963Z,99.99
2016-10-16T04:42:47.874Z,99.99
2016-10-16T04:43:47.518Z,99.99
2016-10-16T04:44:47.707Z,99.99
2016-10-16T04:45:47.749Z,99.99
2016-10-16T04:46:47.706Z,99.99
2016-10-16T04:47:47.469Z,99.99
2016-10-16T04:48:47.361Z,99.99
2016-10-16T04:49:47.691Z,99.99
2016-10-16T04:50:48.316Z,99.99
2016-10-16T04:51:48.042Z,99.99
2016-10-16T04:52:48.568Z,99.99
2016-10-16T04:53:50.342Z,99.99
2016-10-16T04:57:51.284Z,99.99
2016-10-16T04:58:48.454Z,99.99
2016-10-16T04:59:49.018Z,99.99
2016-10-16T05:00:47.073Z,99.99
2016-10-16T05:01:48.301Z,99.99
2016-10-16T05:02:48.679Z,99.99
2016-10-16T05:03:48.697Z,99.99
2016-10-16T05:04:48.857Z,99.99
2016-10-16T05:05:48.126Z,99.99
2016-10-16T05:06:47.810Z,99.99
2016-10-16T05:07:48.393Z,99.99
2016-10-16T05:08:48.462Z,99.99
2016-10-16T05:09:48.465Z,99.99
2016-10-16T05:10:48.026Z,99.99
2016-10-16T05:11:48.211Z,99.99
2016-10-16T05:12:48.475Z,99.99
2016-10-16T05:13:47.953Z,99.99
2016-10-16T05:14:48.388Z,99.99
2016-10-16T05:15:48.411Z,99.99
2016-10-16T05:16:48.119Z,99.99
2016-10-16T05:17:48.677Z,99.99
2016-10-16T05:18:48.551Z,99.99
2016-10-16T05:19:48.812Z,99.99
2016-10-16T05:20:49.100Z,99.99
2016-10-16T05:21:48.279Z,99.99
2016-10-16T05:22:47.852Z,99.99
2016-10-16T05:23:48.662Z,99.99
2016-10-16T05:24:48.311Z,99.99
2016-10-16T05:25:48.645Z,99.99
2016-10-16T05:26:48.873Z,99.99
2016-10-16T05:27:49.233Z,99.99
2016-10-16T05:28:48.259Z,99.99
2016-10-16T05:29:48.870Z,99.99
2016-10-16T05:30:47.895Z,99.99
2016-10-16T05:31:47.954Z,99.99
2016-10-16T05:32:49.841Z,99.99
2016-10-16T05:33:49.048Z,99.99
2016-10-16T05:34:49.030Z,99.99
2016-10-16T05:35:49.047Z,99.99
2016-10-16T05:36:48.167Z,99.99
2016-10-16T05:37:48.203Z,99.99
2016-10-16T05:38:50.056Z,99.99
2016-10-16T05:39:48.521Z,99.99
2016-10-16T05:40:49.227Z,99.99
2016-10-16T05:41:48.329Z,99.99
2016-10-16T05:42:49.086Z,99.99
2016-10-16T05:43:49.145Z,99.99
2016-10-16T05:44:48.680Z,99.99
2016-10-16T05:45:49.992Z,99.99
2016-10-16T05:46:48.631Z,99.99
2016-10-16T05:47:50.306Z,99.99
2016-10-16T05:48:49.365Z,99.99
2016-10-16T05:49:49.381Z,99.99
2016-10-16T05:50:49.370Z,99.99
2016-10-16T05:51:48.802Z,99.99
2016-10-16T05:52:48.813Z,99.99
2016-10-16T05:53:48.635Z,99.99
2016-10-16T05:54:49.740Z,99.99
2016-10-16T05:55:49.901Z,99.99
2016-10-16T05:56:48.882Z,99.99
2016-10-16T05:57:49.336Z,99.99
2016-10-16T05:58:49.280Z,99.99
2016-10-16T05:59:48.555Z,99.99
2016-10-16T06:00:48.632Z,99.99
2016-10-16T06:01:49.263Z,99.99
2016-10-16T06:02:48.860Z,99.99
2016-10-16T06:03:49.485Z,99.99
2016-10-16T06:04:49.316Z,99.99
2016-10-16T06:05:48.932Z,99.99
2016-10-16T06:06:49.180Z,99.99
2016-10-16T06:07:49.688Z,99.99
2016-10-16T06:08:49.590Z,99.99
2016-10-16T06:09:49.811Z,99.99
2016-10-16T06:10:49.263Z,99.99
2016-10-16T06:11:49.172Z,99.99
2016-10-16T06:12:48.936Z,99.99
2016-10-16T06:13:49.270Z,99.99
2016-10-16T06:14:49.138Z,99.99
2016-10-16T06:15:49.402Z,99.99
2016-10-16T06:16:49.416Z,99.99
2016-10-16T06:17:48.879Z,99.99
2016-10-16T06:18:48.989Z,99.99
2016-10-16T06:19:49.291Z,99.99
2016-10-16T06:20:49.274Z,99.99
2016-10-16T06:21:49.685Z,99.99
2016-10-16T06:22:50.092Z,99.99
2016-10-16T06:23:49.637Z,99.99
2016-10-16T06:24:48.836Z,99.99
2016-10-16T06:25:49.595Z,99.99
2016-10-16T06:26:50.019Z,99.99
2016-10-16T06:27:49.751Z,99.99
2016-10-16T06:28:49.791Z,99.99
2016-10-16T06:29:50.505Z,99.99
2016-10-16T06:30:49.355Z,99.99
2016-10-16T06:31:49.426Z,99.99
2016-10-16T06:32:50.133Z,99.99
2016-10-16T06:33:49.410Z,99.99
2016-10-16T06:34:49.028Z,99.99
2016-10-16T06:35:49.859Z,99.99
2016-10-16T06:36:50.381Z,99.99
2016-10-16T06:37:49.412Z,99.99
2016-10-16T06:38:49.932Z,99.99
2016-10-16T06:39:49.329Z,99.99
2016-10-16T06:40:49.487Z,99.99
2016-10-16T06:41:49.838Z,99.99
2016-10-16T06:42:49.453Z,99.99
2016-10-16T06:43:49.873Z,99.99
2016-10-16T06:44:50.527Z,99.99
2016-10-16T06:45:49.298Z,99.99
2016-10-16T06:46:50.215Z,99.99
2016-10-16T06:47:50.341Z,99.99
2016-10-16T06:48:50.235Z,99.99
2016-10-16T06:49:49.439Z,99.99
2016-10-16T06:50:51.133Z,99.99
2016-10-16T06:51:50.372Z,99.99
2016-10-16T06:52:50.249Z,99.99
2016-10-16T06:53:50.333Z,99.99
2016-10-16T06:54:49.779Z,99.99
2016-10-16T06:55:49.462Z,99.99
2016-10-16T06:56:49.475Z,99.99
2016-10-16T06:57:49.246Z,99.99
2016-10-16T06:58:49.524Z,99.99
2016-10-16T06:59:49.209Z,99.99
2016-10-16T07:00:49.447Z,99.99
2016-10-16T07:01:49.480Z,99.99
2016-10-16T07:02:50.420Z,99.99
2016-10-16T07:03:50.280Z,99.99
2016-10-16T07:04:50.383Z,99.99
2016-10-16T07:05:49.707Z,99.99
2016-10-16T07:06:50.017Z,99.99
2016-10-16T07:07:49.646Z,99.99
2016-10-16T07:08:50.211Z,99.99
2016-10-16T07:09:50.182Z,99.99
2016-10-16T07:10:52.168Z,99.99
2016-10-16T07:11:51.748Z,99.99
2016-10-16T07:12:50.507Z,99.99
2016-10-16T07:13:50.364Z,99.99
2016-10-16T07:14:50.541Z,99.99
2016-10-16T07:15:50.109Z,99.99
2016-10-16T07:16:50.100Z,99.99
2016-10-16T07:17:50.187Z,99.99
2016-10-16T07:18:50.056Z,99.99
2016-10-16T07:19:49.980Z,99.99
2016-10-16T07:20:50.378Z,99.99
2016-10-16T07:21:50.262Z,99.99
2016-10-16T07:22:49.975Z,99.99
2016-10-16T07:23:50.642Z,99.99
2016-10-16T07:24:50.363Z,99.99
2016-10-16T07:25:50.117Z,99.99
2016-10-16T07:26:51.052Z,99.99
2016-10-16T07:27:50.025Z,99.99
2016-10-16T07:28:50.971Z,99.99
2016-10-16T07:29:50.985Z,99.99
2016-10-16T07:30:50.560Z,99.99
2016-10-16T07:31:51.038Z,99.99
2016-10-16T07:32:50.906Z,99.99
2016-10-16T07:33:50.302Z,99.99
2016-10-16T07:34:50.404Z,99.99
2016-10-16T07:35:50.912Z,99.99
2016-10-16T07:36:52.010Z,99.99
2016-10-16T07:37:50.684Z,99.99
2016-10-16T07:38:51.333Z,99.99
2016-10-16T07:39:50.870Z,99.99
2016-10-16T07:40:51.307Z,99.99
2016-10-16T07:41:50.612Z,99.99
2016-10-16T07:42:50.554Z,99.99
2016-10-16T07:43:52.411Z,99.99
2016-10-16T07:44:50.921Z,99.99
2016-10-16T07:45:50.529Z,99.99
2016-10-16T07:46:50.829Z,99.99
2016-10-16T07:47:50.449Z,99.99
2016-10-16T07:48:51.491Z,99.99
2016-10-16T07:49:50.563Z,99.99
2016-10-16T07:50:50.537Z,99.99
2016-10-16T07:51:50.547Z,99.99
2016-10-16T07:52:50.435Z,99.99
2016-10-16T07:53:51.323Z,99.99
2016-10-16T07:54:50.002Z,99.99
2016-10-16T07:55:51.134Z,99.99
2016-10-16T07:56:50.726Z,99.99
2016-10-16T07:57:52.521Z,99.99
2016-10-16T07:58:50.825Z,99.99
2016-10-16T07:59:50.787Z,99.99
2016-10-16T08:00:50.896Z,99.99
2016-10-16T08:01:51.048Z,99.99
2016-10-16T08:02:51.822Z,99.99
2016-10-16T08:03:50.865Z,99.99
2016-10-16T08:04:51.157Z,99.99
2016-10-16T08:05:51.623Z,99.99
2016-10-16T08:06:50.794Z,99.99
2016-10-16T08:07:51.113Z,99.99
2016-10-16T08:08:51.116Z,99.99
2016-10-16T08:09:51.158Z,99.99
2016-10-16T08:10:50.927Z,99.99
2016-10-16T08:11:51.729Z,99.99
2016-10-16T08:12:50.982Z,99.99
2016-10-16T08:13:51.392Z,99.99
2016-10-16T08:14:51.144Z,99.99
2016-10-16T08:15:51.549Z,99.99
2016-10-16T08:16:51.601Z,99.99
2016-10-16T08:17:51.650Z,99.99
2016-10-16T08:18:50.920Z,99.99
2016-10-16T08:19:51.293Z,99.99
2016-10-16T08:20:50.887Z,99.99
2016-10-16T08:21:51.731Z,99.99
2016-10-16T08:22:51.007Z,99.99
2016-10-16T08:23:50.813Z,99.99
2016-10-16T08:24:51.206Z,99.99
2016-10-16T08:25:51.162Z,99.99
2016-10-16T08:26:51.356Z,99.99
2016-10-16T08:27:51.697Z,99.99
2016-10-16T08:28:51.077Z,99.99
2016-10-16T08:29:51.673Z,99.99
2016-10-16T08:30:51.317Z,99.99
2016-10-16T08:31:51.169Z,99.99
2016-10-16T08:32:51.688Z,99.99
2016-10-16T08:33:51.449Z,99.99
2016-10-16T08:34:51.758Z,99.99
2016-10-16T08:35:51.656Z,99.99
2016-10-16T08:36:51.958Z,99.99
2016-10-16T08:37:51.837Z,99.99
2016-10-16T08:38:52.210Z,99.99
2016-10-16T08:39:51.316Z,99.99
2016-10-16T08:40:51.535Z,99.99
2016-10-16T08:41:51.870Z,99.99
2016-10-16T08:42:51.544Z,99.99
2016-10-16T08:43:51.736Z,99.99
2016-10-16T08:44:51.694Z,99.99
2016-10-16T08:45:52.808Z,99.99
2016-10-16T08:46:51.755Z,99.99
2016-10-16T08:47:51.939Z,99.99
2016-10-16T08:48:52.261Z,99.99
2016-10-16T08:49:51.566Z,99.99
2016-10-16T08:50:53.053Z,99.99
2016-10-16T08:51:52.332Z,99.99
2016-10-16T08:52:51.618Z,99.99
2016-10-16T08:53:52.137Z,99.99
2016-10-16T08:54:52.117Z,99.99
2016-10-16T08:55:52.308Z,99.99
2016-10-16T08:56:51.858Z,99.99
2016-10-16T08:57:53.347Z,99.99
2016-10-16T08:58:52.473Z,99.99
2016-10-16T08:59:53.420Z,99.99
2016-10-16T09:00:52.420Z,99.99
2016-10-16T09:01:52.037Z,99.99
2016-10-16T09:02:51.976Z,99.99
2016-10-16T09:03:52.096Z,99.99
2016-10-16T09:04:52.128Z,99.99
2016-10-16T09:05:52.367Z,99.99
2016-10-16T09:06:52.966Z,99.99
2016-10-16T09:07:51.852Z,99.99
2016-10-16T09:08:52.769Z,99.99
2016-10-16T09:09:51.927Z,99.99
2016-10-16T09:10:52.420Z,99.99
2016-10-16T09:11:53.282Z,99.99
2016-10-16T09:12:52.384Z,99.99
2016-10-16T09:13:51.827Z,99.99
2016-10-16T09:14:52.020Z,99.99
2016-10-16T09:15:53.272Z,99.99
2016-10-16T09:16:52.254Z,99.99
2016-10-16T09:17:52.548Z,99.99
2016-10-16T09:18:52.423Z,99.99
2016-10-16T09:19:52.852Z,99.99
2016-10-16T09:20:52.873Z,99.99
2016-10-16T09:21:53.505Z,99.99
2016-10-16T09:22:52.990Z,99.99
2016-10-16T09:23:52.567Z,99.99
2016-10-16T09:24:53.384Z,99.99
2016-10-16T09:25:54.114Z,99.99
2016-10-16T09:26:52.538Z,99.99
2016-10-16T09:27:52.815Z,99.99
2016-10-16T09:28:52.567Z,99.99
2016-10-16T09:29:52.283Z,99.99
2016-10-16T09:30:53.340Z,99.99
2016-10-16T09:31:52.619Z,99.99
2016-10-16T09:32:53.006Z,99.99
2016-10-16T09:33:52.492Z,99.99
2016-10-16T09:34:54.015Z,99.99
2016-10-16T09:35:54.086Z,99.99
2016-10-16T09:36:52.623Z,99.99
2016-10-16T09:37:52.268Z,99.99
2016-10-16T09:38:52.422Z,99.99
2016-10-16T09:39:52.575Z,99.99
2016-10-16T09:40:52.514Z,99.99
2016-10-16T09:41:52.736Z,99.99
2016-10-16T09:42:52.636Z,99.99
2016-10-16T09:43:53.141Z,99.99
2016-10-16T09:44:53.592Z,99.99
2016-10-16T09:45:52.560Z,99.99
2016-10-16T09:46:53.170Z,99.99
2016-10-16T09:47:53.636Z,99.99
2016-10-16T09:48:52.673Z,99.99
2016-10-16T09:49:52.903Z,99.99
2016-10-16T09:50:53.644Z,99.99
2016-10-16T09:51:52.602Z,99.99
2016-10-16T09:52:52.696Z,99.99
2016-10-16T09:53:52.865Z,99.99
2016-10-16T09:54:53.085Z,99.99
2016-10-16T09:55:53.163Z,99.99
2016-10-16T09:56:52.803Z,99.99
2016-10-16T09:57:53.377Z,99.99
2016-10-16T09:58:53.290Z,99.99
2016-10-16T09:59:53.191Z,99.99
2016-10-16T10:00:52.906Z,99.99
2016-10-16T10:01:53.044Z,99.99
2016-10-16T10:02:53.190Z,99.99
2016-10-16T10:03:52.884Z,99.99
2016-10-16T10:04:53.560Z,99.99
2016-10-16T10:05:54.486Z,99.99
2016-10-16T10:06:54.167Z,99.99
2016-10-16T10:07:53.076Z,99.99
2016-10-16T10:08:53.418Z,99.99
2016-10-16T10:09:53.724Z,99.99
2016-10-16T10:10:53.809Z,99.99
2016-10-16T10:11:53.462Z,99.99
2016-10-16T10:12:53.162Z,99.99
2016-10-16T10:13:53.283Z,99.99
2016-10-16T10:14:53.089Z,99.99
2016-10-16T10:15:53.664Z,99.99
2016-10-16T10:16:54.047Z,99.99
2016-10-16T10:17:53.239Z,99.99
2016-10-16T10:18:53.594Z,99.99
2016-10-16T10:19:53.241Z,99.8
2016-10-16T10:20:53.008Z,98.03
2016-10-16T10:21:53.284Z,96.66
2016-10-16T10:22:53.352Z,96.27
2016-10-16T10:23:55.011Z,95.32
2016-10-16T10:24:53.851Z,94.55
2016-10-16T10:25:54.426Z,93.45
2016-10-16T10:26:54.927Z,92.4
2016-10-16T10:27:54.129Z,92.02
2016-10-16T10:28:54.261Z,91.78
2016-10-16T10:29:53.900Z,90.73
2016-10-16T10:30:53.282Z,89.2
2016-10-16T10:31:53.439Z,88.48
2016-10-16T10:32:53.763Z,88.67
2016-10-16T10:33:54.163Z,88.52
2016-10-16T10:34:53.525Z,89.91
2016-10-16T10:35:53.999Z,90.39
2016-10-16T10:36:54.429Z,91.54
2016-10-16T10:37:53.788Z,91.59
2016-10-16T10:38:53.531Z,92.4
2016-10-16T10:39:54.300Z,92.74
2016-10-16T10:40:53.963Z,91.59
2016-10-16T10:41:53.792Z,90.44
2016-10-16T10:42:53.701Z,90.16
2016-10-16T10:43:53.961Z,91.3
2016-10-16T10:44:53.881Z,91.74
2016-10-16T10:45:53.748Z,92.07
2016-10-16T10:46:54.519Z,91.88
2016-10-16T10:47:53.601Z,90.63
2016-10-16T10:48:53.901Z,90.2
2016-10-16T10:49:54.047Z,89.34
2016-10-16T10:50:54.234Z,89.53
2016-10-16T10:51:54.253Z,89.43
2016-10-16T10:52:54.124Z,89.81
2016-10-16T10:53:54.253Z,89.72
2016-10-16T10:54:54.869Z,87.85
2016-10-16T10:55:53.809Z,86.7
2016-10-16T10:56:54.563Z,87.27
2016-10-16T10:57:54.294Z,87.62
2016-10-16T10:58:55.233Z,86.51
2016-10-16T10:59:55.178Z,86.99
2016-10-16T11:00:54.361Z,84.74
2016-10-16T11:01:55.167Z,86.65
2016-10-16T11:02:54.383Z,86.55
2016-10-16T11:03:54.771Z,84.16
2016-10-16T11:04:54.273Z,83.82
2016-10-16T11:05:54.255Z,83.92
2016-10-16T11:06:55.402Z,83.82
2016-10-16T11:07:54.515Z,83.72
2016-10-16T11:08:54.319Z,81.9
2016-10-16T11:09:55.988Z,79.88
2016-10-16T11:10:54.803Z,79.59
2016-10-16T11:11:54.226Z,78.82
2016-10-16T11:12:55.119Z,78.96
2016-10-16T11:13:56.187Z,78.19
2016-10-16T11:14:54.502Z,78.57
2016-10-16T11:15:54.515Z,78.19
2016-10-16T11:16:54.989Z,78.03
2016-10-16T11:17:54.199Z,76.94
2016-10-16T11:18:55.298Z,77.8
2016-10-16T11:19:55.011Z,76.07
2016-10-16T11:20:54.962Z,75.45
2016-10-16T11:21:55.367Z,75.06
2016-10-16T11:22:55.503Z,77.75
2016-10-16T11:23:55.233Z,75.31
2016-10-16T11:24:55.065Z,75.25
2016-10-16T11:25:55.311Z,75.15
2016-10-16T11:26:55.283Z,75.38
2016-10-16T11:27:55.612Z,75.06
2016-10-16T11:28:55.234Z,76.4
2016-10-16T11:29:55.054Z,76.17
2016-10-16T11:30:55.274Z,75.54
2016-10-16T11:31:55.526Z,74.23
2016-10-16T11:32:55.384Z,74.04
2016-10-16T11:33:55.848Z,73.85
2016-10-16T11:34:55.305Z,72.25
2016-10-16T11:35:55.262Z,72.44
2016-10-16T11:36:55.541Z,73.6
2016-10-16T11:37:55.192Z,74.17
2016-10-16T11:38:56.449Z,75.1
2016-10-16T11:39:55.355Z,76.02
2016-10-16T11:40:56.268Z,77.17
2016-10-16T11:41:55.209Z,75
2016-10-16T11:42:55.311Z,77.75
2016-10-16T11:43:55.988Z,76.94
2016-10-16T11:44:56.316Z,76.21
2016-10-16T11:45:55.467Z,74.77
2016-10-16T11:46:55.796Z,73.56
2016-10-16T11:47:55.694Z,72.54
2016-10-16T11:48:55.601Z,74.43
2016-10-16T11:49:55.807Z,74.62
2016-10-16T11:50:55.389Z,74.81
2016-10-16T11:51:55.615Z,74.04
2016-10-16T11:52:56.094Z,74.96
2016-10-16T11:53:55.652Z,74.48
2016-10-16T11:54:56.283Z,72.41
2016-10-16T11:55:55.682Z,72.34
2016-10-16T11:56:55.591Z,71.29
2016-10-16T11:57:56.425Z,71.1
2016-10-16T11:58:56.208Z,69.31
2016-10-16T11:59:55.756Z,69.79
2016-10-16T12:00:56.909Z,70.56
2016-10-16T12:01:56.598Z,69.63
2016-10-16T12:02:55.773Z,68.7
2016-10-16T12:03:55.525Z,67.55
2016-10-16T12:04:56.251Z,68.29
2016-10-16T12:05:55.931Z,69.15
2016-10-16T12:06:56.199Z,70.27
2016-10-16T12:07:56.232Z,70.81
2016-10-16T12:08:56.325Z,70.81
2016-10-16T12:09:57.981Z,73.69
2016-10-16T12:10:56.417Z,72.54
2016-10-16T12:11:55.962Z,71.73
2016-10-16T12:12:56.472Z,71.19
2016-10-16T12:13:56.554Z,69.56
2016-10-16T12:14:56.935Z,70.72
2016-10-16T12:15:56.917Z,70.84
2016-10-16T12:16:56.033Z,69.12
2016-10-16T12:17:56.949Z,69.5
2016-10-16T12:18:57.315Z,67.96
2016-10-16T12:19:56.249Z,67.51
2016-10-16T12:20:56.099Z,67.35
2016-10-16T12:21:56.641Z,67.32
2016-10-16T12:22:56.507Z,65.11
2016-10-16T12:23:56.411Z,65.4
2016-10-16T12:24:56.039Z,66.07
2016-10-16T12:25:56.842Z,66.88
2016-10-16T12:26:57.224Z,66.36
2016-10-16T12:27:56.678Z,66.01
2016-10-16T12:28:56.740Z,67.51
2016-10-16T12:29:56.818Z,66.52
2016-10-16T12:30:56.723Z,65.53
2016-10-16T12:31:56.628Z,65.97
2016-10-16T12:32:57.021Z,65.84
2016-10-16T12:33:57.978Z,65.53
2016-10-16T12:34:57.804Z,63.7
2016-10-16T12:35:57.761Z,63.95
2016-10-16T12:36:57.734Z,63.54
2016-10-16T12:37:57.927Z,63.47
2016-10-16T12:38:56.936Z,65.72
2016-10-16T12:39:58.669Z,67
2016-10-16T12:40:57.420Z,68.44
2016-10-16T12:41:57.024Z,68.21
2016-10-16T12:42:57.875Z,66.42
2016-10-16T12:43:57.578Z,64.89
2016-10-16T12:44:57.848Z,65.14
2016-10-16T12:45:57.596Z,65.4
2016-10-16T12:46:57.389Z,64.56
2016-10-16T12:47:58.107Z,62.74
2016-10-16T12:48:57.591Z,62.8
2016-10-16T12:49:57.415Z,62.32
2016-10-16T12:50:57.477Z,62.71
2016-10-16T12:51:58.011Z,62.41
2016-10-16T12:52:57.584Z,62.8
2016-10-16T12:53:57.282Z,63.51
2016-10-16T12:54:57.762Z,63.57
2016-10-16T12:55:57.320Z,64.79
2016-10-16T12:56:59.463Z,63.83